Drumright, OK (74030)

4:11 PM CST on February 14, 2016 (GMT -0600)
Drumright,Oklahoma | | Change Station
CLOSE
Current Station
Personal Weather Station
Location: Drumright, OK
Elevation: 938 ft
Nearby Weather Stations

Elev 938 ft 36.04 °N, 96.57 °W | Updated 60 seconds ago

Partly Cloudy
Partly Cloudy
65.7 °F
Feels Like 65.7 °F
N
2.2
Wind Variable Wind from North
Gusts 2.9 mph

Today
High -- | Low -- °F
--% Chance of Precip.
Yesterday
High -- | Low -- °F
Precip. -- in
Pressure 29.87 in
Visibility 10.0 miles
Clouds Clear
Dew Point 32 °F
Humidity 29%
Rainfall 0.00 in
Snow Depth Not available.
7:15 AM 6:06 PM
Waxing Crescent, 46% visible
METAR KCUH 142155Z AUTO 00000KT 10SM CLR 14/01 A2987 RMK AO2 T01370008
Pressure 29.87 in
Visibility 10.0 miles
Clouds Clear
Dew Point 32 °F
Humidity 29%
Rainfall 0.00 in
Snow Depth Not available.
7:15 AM 6:06 PM
Waxing Crescent, 46% visible
METAR KCUH 142155Z AUTO 00000KT 10SM CLR 14/01 A2987 RMK AO2 T01370008

10-Day Weather Forecast

Almanac

Astronomy

Feb. 14, 2016 Rise Set
Actual Time
Civil Twilight
Nautical Twilight
Astronomical Twilight
Moon
Length of Visible Light
Length of Day
Tomorrow will be .
, % of the Moon is Illuminated

Today's Extremes

State Highs State Lows

Community

WunderPhotos

Upload Photos

1,892,893 photos uploaded!

WunderBlog® & News

Nearby

Air Quality

  Air Quality AQ Index Pollutant
Not available.

Snow Depth

Station Depth Elevation

Earthquake Activity

City Distance Mag. Time & Date
Minimum magnitude displayed is 2.5.

Coastal Water Temperatures

Place Temperature

Stations

Nearby Weather Stations

Station Location Temp. Windchill Dew Point Humidity Wind Precip. Elev Updated Type
                   

Watches & Warnings

There are currently no watches in effect.